sensor_id;sensor_type;location;lat;lon;timestamp;P1;durP1;ratioP1;P2;durP2;ratioP2
69627;SDS011;56850;51.984;5.088;2022-08-24T00:00:31;15.07;;;11.32;;
69627;SDS011;56850;51.984;5.088;2022-08-24T00:02:59;12.32;;;10.65;;
69627;SDS011;56850;51.984;5.088;2022-08-24T00:05:27;13.45;;;12.05;;
69627;SDS011;56850;51.984;5.088;2022-08-24T00:07:53;13.93;;;12.00;;
69627;SDS011;56850;51.984;5.088;2022-08-24T00:10:20;15.30;;;11.88;;
69627;SDS011;56850;51.984;5.088;2022-08-24T00:12:47;16.63;;;13.05;;
69627;SDS011;56850;51.984;5.088;2022-08-24T00:15:15;14.98;;;12.40;;
69627;SDS011;56850;51.984;5.088;2022-08-24T00:17:43;15.70;;;12.48;;
69627;SDS011;56850;51.984;5.088;2022-08-24T00:20:10;15.55;;;12.45;;
69627;SDS011;56850;51.984;5.088;2022-08-24T00:22:38;16.52;;;12.82;;
69627;SDS011;56850;51.984;5.088;2022-08-24T00:25:06;13.02;;;11.60;;
69627;SDS011;56850;51.984;5.088;2022-08-24T00:27:35;14.75;;;12.57;;
69627;SDS011;56850;51.984;5.088;2022-08-24T00:30:04;18.73;;;12.88;;
69627;SDS011;56850;51.984;5.088;2022-08-24T00:32:32;15.15;;;12.70;;
69627;SDS011;56850;51.984;5.088;2022-08-24T00:34:59;13.77;;;12.32;;
69627;SDS011;56850;51.984;5.088;2022-08-24T00:37:27;18.35;;;13.77;;
69627;SDS011;56850;51.984;5.088;2022-08-24T00:39:55;15.88;;;13.38;;
69627;SDS011;56850;51.984;5.088;2022-08-24T00:42:23;15.25;;;12.68;;
69627;SDS011;56850;51.984;5.088;2022-08-24T00:44:50;15.63;;;11.50;;
69627;SDS011;56850;51.984;5.088;2022-08-24T00:47:23;14.77;;;12.25;;
69627;SDS011;56850;51.984;5.088;2022-08-24T00:49:54;16.75;;;12.48;;
69627;SDS011;56850;51.984;5.088;2022-08-24T00:52:26;17.20;;;13.23;;
69627;SDS011;56850;51.984;5.088;2022-08-24T00:55:08;17.80;;;14.45;;
69627;SDS011;56850;51.984;5.088;2022-08-24T00:57:41;19.27;;;13.80;;
69627;SDS011;56850;51.984;5.088;2022-08-24T01:00:15;17.05;;;12.43;;
69627;SDS011;56850;51.984;5.088;2022-08-24T01:02:45;12.07;;;10.18;;
69627;SDS011;56850;51.984;5.088;2022-08-24T01:05:15;13.80;;;10.48;;
69627;SDS011;56850;51.984;5.088;2022-08-24T01:07:44;14.35;;;10.52;;
69627;SDS011;56850;51.984;5.088;2022-08-24T01:10:17;16.85;;;11.38;;
69627;SDS011;56850;51.984;5.088;2022-08-24T01:12:48;12.75;;;11.23;;
69627;SDS011;56850;51.984;5.088;2022-08-24T01:15:27;14.30;;;11.00;;
69627;SDS011;56850;51.984;5.088;2022-08-24T01:17:56;12.35;;;10.70;;
69627;SDS011;56850;51.984;5.088;2022-08-24T01:20:45;11.65;;;10.05;;
69627;SDS011;56850;51.984;5.088;2022-08-24T01:26:06;14.05;;;11.32;;
69627;SDS011;56850;51.984;5.088;2022-08-24T01:28:37;13.95;;;12.45;;
69627;SDS011;56850;51.984;5.088;2022-08-24T01:31:06;16.95;;;13.23;;
69627;SDS011;56850;51.984;5.088;2022-08-24T01:33:33;20.85;;;15.82;;
69627;SDS011;56850;51.984;5.088;2022-08-24T01:36:03;19.35;;;15.52;;
69627;SDS011;56850;51.984;5.088;2022-08-24T01:38:38;19.60;;;16.35;;
69627;SDS011;56850;51.984;5.088;2022-08-24T01:41:06;21.10;;;16.02;;
69627;SDS011;56850;51.984;5.088;2022-08-24T01:43:33;19.23;;;16.38;;
69627;SDS011;56850;51.984;5.088;2022-08-24T01:46:04;22.88;;;17.40;;
69627;SDS011;56850;51.984;5.088;2022-08-24T01:48:32;18.00;;;15.93;;
69627;SDS011;56850;51.984;5.088;2022-08-24T01:50:59;20.80;;;16.10;;
69627;SDS011;56850;51.984;5.088;2022-08-24T01:53:26;18.27;;;16.27;;
69627;SDS011;56850;51.984;5.088;2022-08-24T01:55:53;19.33;;;16.30;;
69627;SDS011;56850;51.984;5.088;2022-08-24T01:58:20;18.38;;;15.98;;
69627;SDS011;56850;51.984;5.088;2022-08-24T02:00:47;17.85;;;15.52;;
69627;SDS011;56850;51.984;5.088;2022-08-24T02:03:14;18.48;;;15.27;;
69627;SDS011;56850;51.984;5.088;2022-08-24T02:05:48;16.63;;;14.48;;
69627;SDS011;56850;51.984;5.088;2022-08-24T02:08:16;20.35;;;15.52;;
69627;SDS011;56850;51.984;5.088;2022-08-24T02:10:43;16.75;;;14.95;;
69627;SDS011;56850;51.984;5.088;2022-08-24T02:13:22;17.98;;;15.02;;
69627;SDS011;56850;51.984;5.088;2022-08-24T02:15:49;19.38;;;14.73;;
69627;SDS011;56850;51.984;5.088;2022-08-24T02:18:16;19.08;;;15.63;;
69627;SDS011;56850;51.984;5.088;2022-08-24T02:20:43;17.48;;;15.57;;
69627;SDS011;56850;51.984;5.088;2022-08-24T02:23:10;16.75;;;14.27;;
69627;SDS011;56850;51.984;5.088;2022-08-24T02:25:38;21.63;;;15.70;;
69627;SDS011;56850;51.984;5.088;2022-08-24T02:28:05;18.30;;;15.95;;
69627;SDS011;56850;51.984;5.088;2022-08-24T02:30:32;19.00;;;15.80;;
69627;SDS011;56850;51.984;5.088;2022-08-24T02:32:59;19.92;;;15.93;;
69627;SDS011;56850;51.984;5.088;2022-08-24T02:35:27;22.25;;;16.33;;
69627;SDS011;56850;51.984;5.088;2022-08-24T02:37:55;17.73;;;15.52;;
69627;SDS011;56850;51.984;5.088;2022-08-24T02:40:25;19.70;;;15.57;;
69627;SDS011;56850;51.984;5.088;2022-08-24T02:42:53;19.33;;;16.98;;
69627;SDS011;56850;51.984;5.088;2022-08-24T02:45:20;17.52;;;15.65;;
69627;SDS011;56850;51.984;5.088;2022-08-24T02:47:48;21.13;;;16.60;;
69627;SDS011;56850;51.984;5.088;2022-08-24T02:50:15;17.65;;;15.77;;
69627;SDS011;56850;51.984;5.088;2022-08-24T02:52:44;18.65;;;16.38;;
69627;SDS011;56850;51.984;5.088;2022-08-24T02:55:12;17.98;;;16.05;;
69627;SDS011;56850;51.984;5.088;2022-08-24T02:57:46;19.85;;;16.15;;
69627;SDS011;56850;51.984;5.088;2022-08-24T03:00:14;22.50;;;16.52;;
69627;SDS011;56850;51.984;5.088;2022-08-24T03:02:55;21.55;;;17.17;;
69627;SDS011;56850;51.984;5.088;2022-08-24T03:05:23;21.38;;;16.85;;
69627;SDS011;56850;51.984;5.088;2022-08-24T03:07:51;24.10;;;16.83;;
69627;SDS011;56850;51.984;5.088;2022-08-24T03:10:18;19.88;;;17.70;;
69627;SDS011;56850;51.984;5.088;2022-08-24T03:12:46;21.67;;;17.05;;
69627;SDS011;56850;51.984;5.088;2022-08-24T03:15:15;21.17;;;17.48;;
69627;SDS011;56850;51.984;5.088;2022-08-24T03:17:46;21.08;;;17.40;;
69627;SDS011;56850;51.984;5.088;2022-08-24T03:20:14;22.08;;;17.98;;
69627;SDS011;56850;51.984;5.088;2022-08-24T03:22:43;20.83;;;18.02;;
69627;SDS011;56850;51.984;5.088;2022-08-24T03:25:12;23.10;;;18.30;;
69627;SDS011;56850;51.984;5.088;2022-08-24T03:27:40;20.20;;;17.40;;
69627;SDS011;56850;51.984;5.088;2022-08-24T03:30:09;21.42;;;18.98;;
69627;SDS011;56850;51.984;5.088;2022-08-24T03:32:39;20.15;;;17.80;;
69627;SDS011;56850;51.984;5.088;2022-08-24T03:35:07;22.33;;;18.67;;
69627;SDS011;56850;51.984;5.088;2022-08-24T03:37:36;20.50;;;18.33;;
69627;SDS011;56850;51.984;5.088;2022-08-24T03:40:05;23.50;;;19.02;;
69627;SDS011;56850;51.984;5.088;2022-08-24T03:42:47;21.25;;;18.88;;
69627;SDS011;56850;51.984;5.088;2022-08-24T03:45:14;25.02;;;19.70;;
69627;SDS011;56850;51.984;5.088;2022-08-24T03:47:43;23.73;;;18.08;;
69627;SDS011;56850;51.984;5.088;2022-08-24T03:50:11;22.65;;;18.38;;
69627;SDS011;56850;51.984;5.088;2022-08-24T03:52:39;18.75;;;16.70;;
69627;SDS011;56850;51.984;5.088;2022-08-24T03:55:07;24.40;;;17.88;;
69627;SDS011;56850;51.984;5.088;2022-08-24T03:57:35;20.83;;;17.70;;
69627;SDS011;56850;51.984;5.088;2022-08-24T04:00:04;20.83;;;17.25;;
69627;SDS011;56850;51.984;5.088;2022-08-24T04:02:39;22.52;;;18.75;;
69627;SDS011;56850;51.984;5.088;2022-08-24T04:05:09;21.10;;;17.92;;
69627;SDS011;56850;51.984;5.088;2022-08-24T04:07:38;25.67;;;19.67;;
69627;SDS011;56850;51.984;5.088;2022-08-24T04:10:05;22.17;;;18.15;;
69627;SDS011;56850;51.984;5.088;2022-08-24T04:12:33;19.58;;;17.40;;
69627;SDS011;56850;51.984;5.088;2022-08-24T04:15:00;22.02;;;18.90;;
69627;SDS011;56850;51.984;5.088;2022-08-24T04:17:28;21.10;;;18.83;;
69627;SDS011;56850;51.984;5.088;2022-08-24T04:19:56;24.50;;;18.75;;
69627;SDS011;56850;51.984;5.088;2022-08-24T04:22:29;20.55;;;17.52;;
69627;SDS011;56850;51.984;5.088;2022-08-24T04:24:59;24.27;;;18.83;;
69627;SDS011;56850;51.984;5.088;2022-08-24T04:27:27;23.67;;;19.33;;
69627;SDS011;56850;51.984;5.088;2022-08-24T04:29:54;26.02;;;18.52;;
69627;SDS011;56850;51.984;5.088;2022-08-24T04:32:24;23.00;;;18.55;;
69627;SDS011;56850;51.984;5.088;2022-08-24T04:34:53;25.13;;;17.40;;
69627;SDS011;56850;51.984;5.088;2022-08-24T04:37:20;25.23;;;18.58;;
69627;SDS011;56850;51.984;5.088;2022-08-24T04:39:55;24.00;;;17.75;;
69627;SDS011;56850;51.984;5.088;2022-08-24T04:42:25;22.30;;;18.05;;
69627;SDS011;56850;51.984;5.088;2022-08-24T04:44:53;19.80;;;17.80;;
69627;SDS011;56850;51.984;5.088;2022-08-24T04:47:22;23.52;;;18.08;;
69627;SDS011;56850;51.984;5.088;2022-08-24T04:49:49;23.40;;;19.23;;
69627;SDS011;56850;51.984;5.088;2022-08-24T04:52:16;28.25;;;20.25;;
69627;SDS011;56850;51.984;5.088;2022-08-24T04:54:43;23.67;;;18.48;;
69627;SDS011;56850;51.984;5.088;2022-08-24T04:57:16;22.73;;;19.85;;
69627;SDS011;56850;51.984;5.088;2022-08-24T04:59:44;23.33;;;18.65;;
69627;SDS011;56850;51.984;5.088;2022-08-24T05:02:12;25.20;;;19.58;;
69627;SDS011;56850;51.984;5.088;2022-08-24T05:04:39;22.25;;;18.42;;
69627;SDS011;56850;51.984;5.088;2022-08-24T05:07:06;26.48;;;18.55;;
69627;SDS011;56850;51.984;5.088;2022-08-24T05:09:33;26.90;;;18.63;;
69627;SDS011;56850;51.984;5.088;2022-08-24T05:12:01;22.50;;;19.58;;
69627;SDS011;56850;51.984;5.088;2022-08-24T05:14:33;25.17;;;18.05;;
69627;SDS011;56850;51.984;5.088;2022-08-24T05:17:00;23.83;;;18.48;;
69627;SDS011;56850;51.984;5.088;2022-08-24T05:19:29;23.33;;;19.65;;
69627;SDS011;56850;51.984;5.088;2022-08-24T05:21:56;23.67;;;18.95;;
69627;SDS011;56850;51.984;5.088;2022-08-24T05:24:23;26.88;;;21.50;;
69627;SDS011;56850;51.984;5.088;2022-08-24T05:26:50;27.52;;;20.90;;
69627;SDS011;56850;51.984;5.088;2022-08-24T05:29:19;24.13;;;20.30;;
69627;SDS011;56850;51.984;5.088;2022-08-24T05:31:49;27.75;;;20.40;;
69627;SDS011;56850;51.984;5.088;2022-08-24T05:34:16;26.92;;;20.27;;
69627;SDS011;56850;51.984;5.088;2022-08-24T05:36:44;26.15;;;21.02;;
69627;SDS011;56850;51.984;5.088;2022-08-24T05:39:32;30.05;;;19.63;;
69627;SDS011;56850;51.984;5.088;2022-08-24T05:42:03;27.13;;;19.92;;
69627;SDS011;56850;51.984;5.088;2022-08-24T05:44:33;27.77;;;21.10;;
69627;SDS011;56850;51.984;5.088;2022-08-24T05:47:00;24.92;;;20.48;;
69627;SDS011;56850;51.984;5.088;2022-08-24T05:49:29;26.17;;;20.25;;
69627;SDS011;56850;51.984;5.088;2022-08-24T05:51:57;29.52;;;20.48;;
69627;SDS011;56850;51.984;5.088;2022-08-24T05:54:24;31.85;;;20.50;;
69627;SDS011;56850;51.984;5.088;2022-08-24T05:56:58;27.13;;;19.48;;
69627;SDS011;56850;51.984;5.088;2022-08-24T05:59:36;28.05;;;19.30;;
69627;SDS011;56850;51.984;5.088;2022-08-24T06:02:12;31.60;;;20.27;;
69627;SDS011;56850;51.984;5.088;2022-08-24T06:04:40;25.85;;;18.65;;
69627;SDS011;56850;51.984;5.088;2022-08-24T06:07:08;25.48;;;19.17;;
69627;SDS011;56850;51.984;5.088;2022-08-24T06:09:42;26.27;;;19.80;;
69627;SDS011;56850;51.984;5.088;2022-08-24T06:12:09;25.25;;;19.40;;
69627;SDS011;56850;51.984;5.088;2022-08-24T06:14:44;27.33;;;20.30;;
69627;SDS011;56850;51.984;5.088;2022-08-24T06:17:15;24.23;;;21.33;;
69627;SDS011;56850;51.984;5.088;2022-08-24T06:19:42;29.88;;;21.92;;
69627;SDS011;56850;51.984;5.088;2022-08-24T06:22:09;29.63;;;21.33;;
69627;SDS011;56850;51.984;5.088;2022-08-24T06:24:37;27.70;;;19.23;;
69627;SDS011;56850;51.984;5.088;2022-08-24T06:27:25;31.75;;;21.23;;
69627;SDS011;56850;51.984;5.088;2022-08-24T06:29:55;26.00;;;20.63;;
69627;SDS011;56850;51.984;5.088;2022-08-24T06:32:44;25.67;;;21.23;;
69627;SDS011;56850;51.984;5.088;2022-08-24T06:35:44;27.95;;;19.70;;
69627;SDS011;56850;51.984;5.088;2022-08-24T06:38:13;26.58;;;19.40;;
69627;SDS011;56850;51.984;5.088;2022-08-24T06:40:43;23.80;;;19.15;;
69627;SDS011;56850;51.984;5.088;2022-08-24T06:43:11;24.60;;;19.75;;
69627;SDS011;56850;51.984;5.088;2022-08-24T06:45:48;30.13;;;19.73;;
69627;SDS011;56850;51.984;5.088;2022-08-24T06:48:17;32.42;;;20.02;;
69627;SDS011;56850;51.984;5.088;2022-08-24T06:50:45;25.45;;;18.60;;
69627;SDS011;56850;51.984;5.088;2022-08-24T06:53:13;29.45;;;18.58;;
69627;SDS011;56850;51.984;5.088;2022-08-24T06:55:58;23.77;;;18.35;;
69627;SDS011;56850;51.984;5.088;2022-08-24T06:58:29;23.13;;;17.50;;
69627;SDS011;56850;51.984;5.088;2022-08-24T07:00:57;23.90;;;18.92;;
69627;SDS011;56850;51.984;5.088;2022-08-24T07:03:32;25.48;;;18.60;;
69627;SDS011;56850;51.984;5.088;2022-08-24T07:06:12;22.77;;;17.98;;
69627;SDS011;56850;51.984;5.088;2022-08-24T07:08:40;21.95;;;17.50;;
69627;SDS011;56850;51.984;5.088;2022-08-24T07:11:10;23.42;;;16.77;;
69627;SDS011;56850;51.984;5.088;2022-08-24T07:13:40;26.13;;;19.45;;
69627;SDS011;56850;51.984;5.088;2022-08-24T07:16:07;25.58;;;18.33;;
69627;SDS011;56850;51.984;5.088;2022-08-24T07:18:36;27.55;;;17.30;;
69627;SDS011;56850;51.984;5.088;2022-08-24T07:21:07;24.40;;;16.13;;
69627;SDS011;56850;51.984;5.088;2022-08-24T07:23:44;20.52;;;14.32;;
69627;SDS011;56850;51.984;5.088;2022-08-24T07:26:14;16.67;;;14.40;;
69627;SDS011;56850;51.984;5.088;2022-08-24T07:28:50;20.42;;;16.15;;
69627;SDS011;56850;51.984;5.088;2022-08-24T07:31:28;25.10;;;16.35;;
69627;SDS011;56850;51.984;5.088;2022-08-24T07:34:19;19.83;;;14.82;;
69627;SDS011;56850;51.984;5.088;2022-08-24T07:36:46;24.15;;;15.50;;
69627;SDS011;56850;51.984;5.088;2022-08-24T07:39:13;28.38;;;13.68;;
69627;SDS011;56850;51.984;5.088;2022-08-24T07:41:40;16.77;;;11.77;;
69627;SDS011;56850;51.984;5.088;2022-08-24T07:44:29;18.50;;;12.57;;
69627;SDS011;56850;51.984;5.088;2022-08-24T07:46:57;18.63;;;13.00;;
69627;SDS011;56850;51.984;5.088;2022-08-24T07:49:44;19.50;;;14.10;;
69627;SDS011;56850;51.984;5.088;2022-08-24T07:52:11;19.73;;;13.68;;
69627;SDS011;56850;51.984;5.088;2022-08-24T07:54:38;17.33;;;12.88;;
69627;SDS011;56850;51.984;5.088;2022-08-24T07:57:06;17.73;;;12.70;;
69627;SDS011;56850;51.984;5.088;2022-08-24T07:59:34;12.55;;;10.05;;
69627;SDS011;56850;51.984;5.088;2022-08-24T08:02:03;14.98;;;10.13;;
69627;SDS011;56850;51.984;5.088;2022-08-24T08:04:30;10.40;;;8.32;;
69627;SDS011;56850;51.984;5.088;2022-08-24T08:06:58;16.85;;;12.55;;
69627;SDS011;56850;51.984;5.088;2022-08-24T08:09:29;22.15;;;14.50;;
69627;SDS011;56850;51.984;5.088;2022-08-24T08:11:56;17.02;;;12.15;;
69627;SDS011;56850;51.984;5.088;2022-08-24T08:14:23;16.15;;;12.68;;
69627;SDS011;56850;51.984;5.088;2022-08-24T08:16:50;15.63;;;12.18;;
69627;SDS011;56850;51.984;5.088;2022-08-24T08:19:17;12.50;;;11.20;;
69627;SDS011;56850;51.984;5.088;2022-08-24T08:21:46;12.82;;;9.93;;
69627;SDS011;56850;51.984;5.088;2022-08-24T08:24:45;16.73;;;12.50;;
69627;SDS011;56850;51.984;5.088;2022-08-24T08:27:12;14.88;;;11.85;;
69627;SDS011;56850;51.984;5.088;2022-08-24T08:29:42;19.02;;;12.80;;
69627;SDS011;56850;51.984;5.088;2022-08-24T08:32:10;16.75;;;12.18;;
69627;SDS011;56850;51.984;5.088;2022-08-24T08:34:43;15.35;;;11.52;;
69627;SDS011;56850;51.984;5.088;2022-08-24T08:37:10;18.38;;;11.13;;
69627;SDS011;56850;51.984;5.088;2022-08-24T08:39:38;13.80;;;10.77;;
69627;SDS011;56850;51.984;5.088;2022-08-24T08:51:08;13.77;;;12.02;;
69627;SDS011;56850;51.984;5.088;2022-08-24T08:53:40;16.40;;;11.90;;
69627;SDS011;56850;51.984;5.088;2022-08-24T08:56:35;14.48;;;9.73;;
69627;SDS011;56850;51.984;5.088;2022-08-24T09:05:14;19.48;;;10.13;;
69627;SDS011;56850;51.984;5.088;2022-08-24T09:10:47;14.40;;;8.30;;
69627;SDS011;56850;51.984;5.088;2022-08-24T09:13:26;10.93;;;8.20;;
69627;SDS011;56850;51.984;5.088;2022-08-24T09:16:42;8.57;;;6.90;;
69627;SDS011;56850;51.984;5.088;2022-08-24T09:19:42;12.33;;;7.47;;
69627;SDS011;56850;51.984;5.088;2022-08-24T09:22:15;11.15;;;7.63;;
69627;SDS011;56850;51.984;5.088;2022-08-24T09:27:42;13.50;;;7.32;;
69627;SDS011;56850;51.984;5.088;2022-08-24T09:30:22;9.43;;;7.07;;
69627;SDS011;56850;51.984;5.088;2022-08-24T09:38:27;9.77;;;5.57;;
69627;SDS011;56850;51.984;5.088;2022-08-24T09:41:03;10.13;;;6.55;;
69627;SDS011;56850;51.984;5.088;2022-08-24T09:51:54;8.73;;;6.53;;
69627;SDS011;56850;51.984;5.088;2022-08-24T09:55:41;8.20;;;6.05;;
69627;SDS011;56850;51.984;5.088;2022-08-24T10:01:23;5.87;;;4.00;;
69627;SDS011;56850;51.984;5.088;2022-08-24T10:18:44;7.22;;;4.55;;
69627;SDS011;56850;51.984;5.088;2022-08-24T10:34:52;3.28;;;2.30;;
69627;SDS011;56850;51.984;5.088;2022-08-24T10:40:49;4.40;;;2.33;;
69627;SDS011;56850;51.984;5.088;2022-08-24T10:48:58;3.00;;;2.20;;
69627;SDS011;56850;51.984;5.088;2022-08-24T10:54:48;2.80;;;2.20;;
69627;SDS011;56850;51.984;5.088;2022-08-24T11:02:48;3.30;;;2.42;;
69627;SDS011;56850;51.984;5.088;2022-08-24T11:05:33;6.25;;;2.67;;
69627;SDS011;56850;51.984;5.088;2022-08-24T11:08:06;6.88;;;2.90;;
69627;SDS011;56850;51.984;5.088;2022-08-24T11:10:34;4.63;;;2.70;;
69627;SDS011;56850;51.984;5.088;2022-08-24T11:13:22;5.32;;;2.60;;
69627;SDS011;56850;51.984;5.088;2022-08-24T11:15:56;4.30;;;2.28;;
69627;SDS011;56850;51.984;5.088;2022-08-24T11:18:25;3.95;;;2.80;;
69627;SDS011;56850;51.984;5.088;2022-08-24T11:21:10;4.35;;;2.50;;
69627;SDS011;56850;51.984;5.088;2022-08-24T11:27:04;2.75;;;1.50;;
69627;SDS011;56850;51.984;5.088;2022-08-24T11:32:35;4.25;;;1.65;;
69627;SDS011;56850;51.984;5.088;2022-08-24T11:37:46;2.87;;;1.33;;
69627;SDS011;56850;51.984;5.088;2022-08-24T11:40:15;2.08;;;1.50;;
69627;SDS011;56850;51.984;5.088;2022-08-24T11:56:54;2.47;;;1.55;;
69627;SDS011;56850;51.984;5.088;2022-08-24T12:02:49;2.45;;;1.50;;
69627;SDS011;56850;51.984;5.088;2022-08-24T12:16:08;5.57;;;1.30;;
69627;SDS011;56850;51.984;5.088;2022-08-24T12:19:02;1.43;;;1.30;;
69627;SDS011;56850;51.984;5.088;2022-08-24T12:21:35;2.42;;;1.40;;
69627;SDS011;56850;51.984;5.088;2022-08-24T12:24:11;1.52;;;1.20;;
69627;SDS011;56850;51.984;5.088;2022-08-24T12:29:14;2.25;;;1.58;;
69627;SDS011;56850;51.984;5.088;2022-08-24T12:31:58;3.17;;;1.53;;
69627;SDS011;56850;51.984;5.088;2022-08-24T12:34:44;4.90;;;1.38;;
69627;SDS011;56850;51.984;5.088;2022-08-24T12:43:05;2.25;;;1.38;;
69627;SDS011;56850;51.984;5.088;2022-08-24T12:45:53;1.47;;;1.23;;
69627;SDS011;56850;51.984;5.088;2022-08-24T12:48:27;1.77;;;1.52;;
69627;SDS011;56850;51.984;5.088;2022-08-24T12:54:24;2.50;;;1.40;;
69627;SDS011;56850;51.984;5.088;2022-08-24T12:59:47;1.53;;;1.43;;
69627;SDS011;56850;51.984;5.088;2022-08-24T13:09:49;2.40;;;1.40;;
69627;SDS011;56850;51.984;5.088;2022-08-24T17:32:53;2.38;;;1.50;;
69627;SDS011;56850;51.984;5.088;2022-08-24T17:35:21;2.88;;;1.75;;
69627;SDS011;56850;51.984;5.088;2022-08-24T17:37:49;2.50;;;1.70;;
69627;SDS011;56850;51.984;5.088;2022-08-24T17:40:19;3.88;;;2.20;;
69627;SDS011;56850;51.984;5.088;2022-08-24T17:42:48;2.58;;;1.65;;
69627;SDS011;56850;51.984;5.088;2022-08-24T17:45:17;4.25;;;1.90;;
69627;SDS011;56850;51.984;5.088;2022-08-24T17:47:45;5.05;;;2.10;;
69627;SDS011;56850;51.984;5.088;2022-08-24T17:50:13;3.10;;;1.90;;
69627;SDS011;56850;51.984;5.088;2022-08-24T17:52:41;3.45;;;1.90;;
69627;SDS011;56850;51.984;5.088;2022-08-24T17:55:09;2.97;;;1.60;;
69627;SDS011;56850;51.984;5.088;2022-08-24T17:57:38;3.30;;;2.03;;
69627;SDS011;56850;51.984;5.088;2022-08-24T18:00:06;3.08;;;1.95;;
69627;SDS011;56850;51.984;5.088;2022-08-24T18:02:39;5.77;;;1.80;;
69627;SDS011;56850;51.984;5.088;2022-08-24T18:05:07;5.22;;;1.90;;
69627;SDS011;56850;51.984;5.088;2022-08-24T18:07:37;4.25;;;1.98;;
69627;SDS011;56850;51.984;5.088;2022-08-24T18:10:21;5.03;;;2.03;;
69627;SDS011;56850;51.984;5.088;2022-08-24T18:12:50;3.63;;;2.28;;
69627;SDS011;56850;51.984;5.088;2022-08-24T18:15:17;7.40;;;2.40;;
69627;SDS011;56850;51.984;5.088;2022-08-24T18:17:46;3.10;;;2.00;;
69627;SDS011;56850;51.984;5.088;2022-08-24T18:20:15;5.97;;;2.20;;
69627;SDS011;56850;51.984;5.088;2022-08-24T18:22:50;4.72;;;2.30;;
69627;SDS011;56850;51.984;5.088;2022-08-24T18:25:38;3.30;;;2.00;;
69627;SDS011;56850;51.984;5.088;2022-08-24T18:28:17;5.03;;;2.53;;
69627;SDS011;56850;51.984;5.088;2022-08-24T18:30:49;3.22;;;2.13;;
69627;SDS011;56850;51.984;5.088;2022-08-24T18:33:16;4.05;;;1.80;;
69627;SDS011;56850;51.984;5.088;2022-08-24T18:35:43;3.75;;;2.17;;
69627;SDS011;56850;51.984;5.088;2022-08-24T18:38:12;4.93;;;2.13;;
69627;SDS011;56850;51.984;5.088;2022-08-24T18:40:40;3.60;;;2.10;;
69627;SDS011;56850;51.984;5.088;2022-08-24T18:43:18;4.85;;;2.20;;
69627;SDS011;56850;51.984;5.088;2022-08-24T18:45:48;4.72;;;1.80;;
69627;SDS011;56850;51.984;5.088;2022-08-24T18:48:15;3.40;;;1.88;;
69627;SDS011;56850;51.984;5.088;2022-08-24T18:50:43;4.32;;;2.15;;
69627;SDS011;56850;51.984;5.088;2022-08-24T18:53:10;3.83;;;2.40;;
69627;SDS011;56850;51.984;5.088;2022-08-24T18:55:38;6.13;;;2.30;;
69627;SDS011;56850;51.984;5.088;2022-08-24T18:58:08;4.95;;;2.40;;
69627;SDS011;56850;51.984;5.088;2022-08-24T19:00:35;3.28;;;2.10;;
69627;SDS011;56850;51.984;5.088;2022-08-24T19:03:03;6.30;;;1.92;;
69627;SDS011;56850;51.984;5.088;2022-08-24T19:05:32;3.40;;;2.30;;
69627;SDS011;56850;51.984;5.088;2022-08-24T19:08:00;2.90;;;1.90;;
69627;SDS011;56850;51.984;5.088;2022-08-24T19:10:32;3.05;;;1.90;;
69627;SDS011;56850;51.984;5.088;2022-08-24T19:13:02;5.85;;;2.33;;
69627;SDS011;56850;51.984;5.088;2022-08-24T19:15:34;2.65;;;2.13;;
69627;SDS011;56850;51.984;5.088;2022-08-24T19:18:06;3.03;;;2.30;;
69627;SDS011;56850;51.984;5.088;2022-08-24T19:20:39;2.30;;;1.80;;
69627;SDS011;56850;51.984;5.088;2022-08-24T19:23:21;2.65;;;1.92;;
69627;SDS011;56850;51.984;5.088;2022-08-24T19:26:00;2.40;;;2.00;;
69627;SDS011;56850;51.984;5.088;2022-08-24T19:28:28;3.22;;;1.77;;
69627;SDS011;56850;51.984;5.088;2022-08-24T19:30:55;3.53;;;1.80;;
69627;SDS011;56850;51.984;5.088;2022-08-24T19:33:27;4.35;;;1.90;;
69627;SDS011;56850;51.984;5.088;2022-08-24T19:35:59;1.92;;;1.77;;
69627;SDS011;56850;51.984;5.088;2022-08-24T19:38:26;2.25;;;2.03;;
69627;SDS011;56850;51.984;5.088;2022-08-24T19:40:53;3.00;;;2.00;;
69627;SDS011;56850;51.984;5.088;2022-08-24T19:43:26;5.50;;;2.37;;
69627;SDS011;56850;51.984;5.088;2022-08-24T19:45:55;2.83;;;2.08;;
69627;SDS011;56850;51.984;5.088;2022-08-24T19:48:35;5.65;;;2.30;;
69627;SDS011;56850;51.984;5.088;2022-08-24T19:51:04;3.50;;;2.42;;
69627;SDS011;56850;51.984;5.088;2022-08-24T19:53:34;4.15;;;2.35;;
69627;SDS011;56850;51.984;5.088;2022-08-24T19:56:03;3.53;;;2.30;;
69627;SDS011;56850;51.984;5.088;2022-08-24T20:01:24;5.72;;;2.28;;
69627;SDS011;56850;51.984;5.088;2022-08-24T20:03:52;6.25;;;2.80;;
69627;SDS011;56850;51.984;5.088;2022-08-24T20:06:20;3.55;;;2.40;;
69627;SDS011;56850;51.984;5.088;2022-08-24T20:08:49;4.40;;;2.60;;
69627;SDS011;56850;51.984;5.088;2022-08-24T20:11:16;2.78;;;2.30;;
69627;SDS011;56850;51.984;5.088;2022-08-24T20:13:45;5.43;;;2.55;;
69627;SDS011;56850;51.984;5.088;2022-08-24T20:16:16;3.83;;;2.65;;
69627;SDS011;56850;51.984;5.088;2022-08-24T20:18:45;5.85;;;3.33;;
69627;SDS011;56850;51.984;5.088;2022-08-24T20:21:12;6.13;;;2.70;;
69627;SDS011;56850;51.984;5.088;2022-08-24T20:23:41;4.82;;;2.90;;
69627;SDS011;56850;51.984;5.088;2022-08-24T20:26:09;4.10;;;3.05;;
69627;SDS011;56850;51.984;5.088;2022-08-24T20:28:38;3.10;;;2.47;;
69627;SDS011;56850;51.984;5.088;2022-08-24T20:31:08;5.18;;;3.13;;
69627;SDS011;56850;51.984;5.088;2022-08-24T20:33:35;3.97;;;3.07;;
69627;SDS011;56850;51.984;5.088;2022-08-24T20:36:02;3.97;;;3.33;;
69627;SDS011;56850;51.984;5.088;2022-08-24T20:38:29;4.85;;;3.35;;
69627;SDS011;56850;51.984;5.088;2022-08-24T20:40:57;6.80;;;3.13;;
69627;SDS011;56850;51.984;5.088;2022-08-24T20:43:25;6.85;;;3.42;;
69627;SDS011;56850;51.984;5.088;2022-08-24T20:45:53;6.30;;;3.70;;
69627;SDS011;56850;51.984;5.088;2022-08-24T20:48:26;4.15;;;3.15;;
69627;SDS011;56850;51.984;5.088;2022-08-24T20:50:56;5.30;;;3.35;;
69627;SDS011;56850;51.984;5.088;2022-08-24T20:53:24;4.97;;;3.63;;
69627;SDS011;56850;51.984;5.088;2022-08-24T20:55:52;7.10;;;3.45;;
69627;SDS011;56850;51.984;5.088;2022-08-24T20:58:21;4.68;;;3.30;;
69627;SDS011;56850;51.984;5.088;2022-08-24T21:00:48;5.28;;;3.50;;
69627;SDS011;56850;51.984;5.088;2022-08-24T21:03:18;4.25;;;3.63;;
69627;SDS011;56850;51.984;5.088;2022-08-24T21:05:46;4.05;;;3.60;;
69627;SDS011;56850;51.984;5.088;2022-08-24T21:08:16;4.82;;;4.03;;
69627;SDS011;56850;51.984;5.088;2022-08-24T21:10:43;4.97;;;3.90;;
69627;SDS011;56850;51.984;5.088;2022-08-24T21:13:10;4.43;;;3.58;;
69627;SDS011;56850;51.984;5.088;2022-08-24T21:15:37;5.75;;;3.90;;
69627;SDS011;56850;51.984;5.088;2022-08-24T21:18:07;4.75;;;3.53;;
69627;SDS011;56850;51.984;5.088;2022-08-24T21:20:36;5.82;;;3.83;;
69627;SDS011;56850;51.984;5.088;2022-08-24T21:23:09;5.32;;;4.15;;
69627;SDS011;56850;51.984;5.088;2022-08-24T21:25:36;5.18;;;3.65;;
69627;SDS011;56850;51.984;5.088;2022-08-24T21:28:04;4.55;;;4.07;;
69627;SDS011;56850;51.984;5.088;2022-08-24T21:30:31;5.53;;;4.00;;
69627;SDS011;56850;51.984;5.088;2022-08-24T21:33:00;4.88;;;3.95;;
69627;SDS011;56850;51.984;5.088;2022-08-24T21:35:49;4.53;;;4.00;;
69627;SDS011;56850;51.984;5.088;2022-08-24T21:38:20;5.28;;;3.80;;
69627;SDS011;56850;51.984;5.088;2022-08-24T21:40:51;6.97;;;4.05;;
69627;SDS011;56850;51.984;5.088;2022-08-24T21:43:18;6.55;;;4.53;;